sensor_id;sensor_type;location;lat;lon;timestamp;pressure;altitude;pressure_sealevel;temperature;humidity
62926;BME280;55732;52.248;-0.844;2022-10-16T00:01:46;99480.23;;;11.47;73.27
62926;BME280;55732;52.248;-0.844;2022-10-16T00:04:12;99492.36;;;11.49;73.09
62926;BME280;55732;52.248;-0.844;2022-10-16T00:06:38;99490.75;;;11.51;73.13
62926;BME280;55732;52.248;-0.844;2022-10-16T00:09:04;99492.16;;;11.51;72.98
62926;BME280;55732;52.248;-0.844;2022-10-16T00:11:35;99490.02;;;11.51;72.80
62926;BME280;55732;52.248;-0.844;2022-10-16T00:14:06;99488.61;;;11.51;72.75
62926;BME280;55732;52.248;-0.844;2022-10-16T00:16:33;99487.77;;;11.50;72.62
62926;BME280;55732;52.248;-0.844;2022-10-16T00:18:59;99489.58;;;11.47;72.65
62926;BME280;55732;52.248;-0.844;2022-10-16T00:21:26;99485.25;;;11.44;72.58
62926;BME280;55732;52.248;-0.844;2022-10-16T00:23:54;99489.02;;;11.42;72.65
62926;BME280;55732;52.248;-0.844;2022-10-16T00:26:20;99491.70;;;11.40;72.75
62926;BME280;55732;52.248;-0.844;2022-10-16T00:28:47;99497.05;;;11.37;72.74
62926;BME280;55732;52.248;-0.844;2022-10-16T00:31:15;99502.73;;;11.35;72.87
62926;BME280;55732;52.248;-0.844;2022-10-16T00:33:41;99499.74;;;11.34;72.90
62926;BME280;55732;52.248;-0.844;2022-10-16T00:36:08;99501.37;;;11.33;72.91
62926;BME280;55732;52.248;-0.844;2022-10-16T00:38:35;99501.95;;;11.31;72.98
62926;BME280;55732;52.248;-0.844;2022-10-16T00:41:00;99499.88;;;11.29;73.09
62926;BME280;55732;52.248;-0.844;2022-10-16T00:46:20;99507.83;;;11.28;73.01
62926;BME280;55732;52.248;-0.844;2022-10-16T00:51:25;99511.25;;;11.24;73.10
62926;BME280;55732;52.248;-0.844;2022-10-16T00:53:54;99517.08;;;11.22;73.18
62926;BME280;55732;52.248;-0.844;2022-10-16T00:56:20;99521.71;;;11.21;73.18
62926;BME280;55732;52.248;-0.844;2022-10-16T00:58:46;99521.23;;;11.19;73.25
62926;BME280;55732;52.248;-0.844;2022-10-16T01:01:11;99525.30;;;11.18;73.27
62926;BME280;55732;52.248;-0.844;2022-10-16T01:03:37;99520.20;;;11.18;73.09
62926;BME280;55732;52.248;-0.844;2022-10-16T01:09:06;99521.29;;;11.16;73.26
62926;BME280;55732;52.248;-0.844;2022-10-16T01:11:44;99524.50;;;11.14;73.30
62926;BME280;55732;52.248;-0.844;2022-10-16T01:14:25;99526.48;;;11.11;73.38
62926;BME280;55732;52.248;-0.844;2022-10-16T01:16:58;99528.30;;;11.09;73.37
62926;BME280;55732;52.248;-0.844;2022-10-16T01:19:47;99528.52;;;11.08;73.42
62926;BME280;55732;52.248;-0.844;2022-10-16T01:22:16;99523.94;;;11.08;73.53
62926;BME280;55732;52.248;-0.844;2022-10-16T01:24:49;99527.64;;;11.07;73.51
62926;BME280;55732;52.248;-0.844;2022-10-16T01:27:24;99529.23;;;11.06;73.53
62926;BME280;55732;52.248;-0.844;2022-10-16T01:29:52;99534.18;;;11.06;73.68
62926;BME280;55732;52.248;-0.844;2022-10-16T01:32:30;99530.49;;;11.06;73.61
62926;BME280;55732;52.248;-0.844;2022-10-16T01:35:25;99536.13;;;11.06;73.75
62926;BME280;55732;52.248;-0.844;2022-10-16T01:38:15;99539.47;;;11.06;73.76
62926;BME280;55732;52.248;-0.844;2022-10-16T01:40:46;99537.73;;;11.05;73.71
62926;BME280;55732;52.248;-0.844;2022-10-16T01:43:15;99545.84;;;11.04;73.77
62926;BME280;55732;52.248;-0.844;2022-10-16T01:45:44;99551.14;;;11.03;73.75
62926;BME280;55732;52.248;-0.844;2022-10-16T01:48:17;99557.49;;;11.02;73.83
62926;BME280;55732;52.248;-0.844;2022-10-16T01:50:44;99561.73;;;11.01;73.84
62926;BME280;55732;52.248;-0.844;2022-10-16T01:53:15;99569.70;;;10.99;73.91
62926;BME280;55732;52.248;-0.844;2022-10-16T01:55:44;99575.16;;;10.99;73.98
62926;BME280;55732;52.248;-0.844;2022-10-16T01:58:13;99577.79;;;11.00;73.95
62926;BME280;55732;52.248;-0.844;2022-10-16T02:00:42;99570.52;;;11.03;73.99
62926;BME280;55732;52.248;-0.844;2022-10-16T02:03:11;99569.42;;;11.05;74.10
62926;BME280;55732;52.248;-0.844;2022-10-16T02:05:42;99564.81;;;11.07;73.99
62926;BME280;55732;52.248;-0.844;2022-10-16T02:08:09;99569.02;;;11.09;74.22
62926;BME280;55732;52.248;-0.844;2022-10-16T02:10:36;99576.27;;;11.08;74.35
62926;BME280;55732;52.248;-0.844;2022-10-16T02:15:34;99584.64;;;11.11;74.40
62926;BME280;55732;52.248;-0.844;2022-10-16T02:18:02;99588.44;;;11.14;74.35
62926;BME280;55732;52.248;-0.844;2022-10-16T02:20:28;99585.92;;;11.17;74.26
62926;BME280;55732;52.248;-0.844;2022-10-16T02:22:56;99587.31;;;11.19;74.09
62926;BME280;55732;52.248;-0.844;2022-10-16T02:25:30;99591.52;;;11.19;73.89
62926;BME280;55732;52.248;-0.844;2022-10-16T02:28:15;99597.69;;;11.20;73.95
62926;BME280;55732;52.248;-0.844;2022-10-16T02:30:57;99603.64;;;11.20;73.89
62926;BME280;55732;52.248;-0.844;2022-10-16T02:33:25;99611.23;;;11.21;73.84
62926;BME280;55732;52.248;-0.844;2022-10-16T02:35:52;99616.33;;;11.21;73.89
62926;BME280;55732;52.248;-0.844;2022-10-16T02:38:20;99619.01;;;11.19;73.99
62926;BME280;55732;52.248;-0.844;2022-10-16T02:40:46;99625.02;;;11.19;74.04
62926;BME280;55732;52.248;-0.844;2022-10-16T02:43:12;99629.44;;;11.17;74.02
62926;BME280;55732;52.248;-0.844;2022-10-16T02:45:38;99633.67;;;11.17;74.30
62926;BME280;55732;52.248;-0.844;2022-10-16T02:48:04;99636.70;;;11.15;74.37
62926;BME280;55732;52.248;-0.844;2022-10-16T02:50:30;99642.17;;;11.14;74.35
62926;BME280;55732;52.248;-0.844;2022-10-16T02:52:55;99641.64;;;11.15;74.39
62926;BME280;55732;52.248;-0.844;2022-10-16T02:55:20;99645.13;;;11.17;74.50
62926;BME280;55732;52.248;-0.844;2022-10-16T02:57:46;99649.17;;;11.18;74.49
62926;BME280;55732;52.248;-0.844;2022-10-16T03:00:14;99646.13;;;11.20;74.63
62926;BME280;55732;52.248;-0.844;2022-10-16T03:02:40;99656.98;;;11.23;74.72
62926;BME280;55732;52.248;-0.844;2022-10-16T03:05:05;99662.75;;;11.26;74.94
62926;BME280;55732;52.248;-0.844;2022-10-16T03:07:31;99657.96;;;11.27;75.14
62926;BME280;55732;52.248;-0.844;2022-10-16T03:09:56;99650.03;;;11.28;75.31
62926;BME280;55732;52.248;-0.844;2022-10-16T03:12:28;99649.85;;;11.27;75.52
62926;BME280;55732;52.248;-0.844;2022-10-16T03:14:54;99655.00;;;11.26;75.54
62926;BME280;55732;52.248;-0.844;2022-10-16T03:17:19;99654.38;;;11.21;75.52
62926;BME280;55732;52.248;-0.844;2022-10-16T03:19:45;99659.59;;;11.16;75.77
62926;BME280;55732;52.248;-0.844;2022-10-16T03:22:10;99655.59;;;11.12;75.90
62926;BME280;55732;52.248;-0.844;2022-10-16T03:24:36;99660.43;;;11.08;75.76
62926;BME280;55732;52.248;-0.844;2022-10-16T03:27:01;99664.91;;;11.05;75.86
62926;BME280;55732;52.248;-0.844;2022-10-16T03:29:27;99670.38;;;11.04;75.94
62926;BME280;55732;52.248;-0.844;2022-10-16T03:31:55;99676.02;;;11.03;75.97
62926;BME280;55732;52.248;-0.844;2022-10-16T03:34:21;99681.34;;;11.02;76.13
62926;BME280;55732;52.248;-0.844;2022-10-16T03:36:46;99689.30;;;10.99;76.08
62926;BME280;55732;52.248;-0.844;2022-10-16T03:39:12;99688.86;;;10.96;76.01
62926;BME280;55732;52.248;-0.844;2022-10-16T03:41:37;99691.35;;;10.93;76.28
62926;BME280;55732;52.248;-0.844;2022-10-16T03:44:02;99695.27;;;10.91;76.28
62926;BME280;55732;52.248;-0.844;2022-10-16T03:46:28;99701.98;;;10.90;76.36
62926;BME280;55732;52.248;-0.844;2022-10-16T03:48:54;99703.45;;;10.86;76.29
62926;BME280;55732;52.248;-0.844;2022-10-16T03:51:20;99707.20;;;10.83;76.27
62926;BME280;55732;52.248;-0.844;2022-10-16T03:53:45;99710.40;;;10.81;76.26
62926;BME280;55732;52.248;-0.844;2022-10-16T03:56:10;99710.98;;;10.78;76.38
62926;BME280;55732;52.248;-0.844;2022-10-16T03:58:36;99718.59;;;10.74;76.30
62926;BME280;55732;52.248;-0.844;2022-10-16T04:01:01;99721.64;;;10.72;76.33
62926;BME280;55732;52.248;-0.844;2022-10-16T04:03:26;99723.43;;;10.70;76.44
62926;BME280;55732;52.248;-0.844;2022-10-16T04:05:52;99727.52;;;10.68;76.36
62926;BME280;55732;52.248;-0.844;2022-10-16T04:08:18;99733.52;;;10.65;76.37
62926;BME280;55732;52.248;-0.844;2022-10-16T04:10:43;99733.21;;;10.63;76.49
62926;BME280;55732;52.248;-0.844;2022-10-16T04:13:09;99738.71;;;10.61;76.56
62926;BME280;55732;52.248;-0.844;2022-10-16T04:15:35;99748.06;;;10.60;76.49
62926;BME280;55732;52.248;-0.844;2022-10-16T04:18:00;99753.17;;;10.59;76.46
62926;BME280;55732;52.248;-0.844;2022-10-16T04:20:26;99763.95;;;10.56;76.47
62926;BME280;55732;52.248;-0.844;2022-10-16T04:22:51;99767.66;;;10.55;76.65
62926;BME280;55732;52.248;-0.844;2022-10-16T04:25:16;99782.28;;;10.54;76.50
62926;BME280;55732;52.248;-0.844;2022-10-16T04:27:42;99782.47;;;10.53;76.41
62926;BME280;55732;52.248;-0.844;2022-10-16T04:30:08;99787.77;;;10.51;76.65
62926;BME280;55732;52.248;-0.844;2022-10-16T04:32:33;99795.71;;;10.50;76.64
62926;BME280;55732;52.248;-0.844;2022-10-16T04:34:59;99801.02;;;10.49;76.64
62926;BME280;55732;52.248;-0.844;2022-10-16T04:37:25;99805.09;;;10.47;76.59
62926;BME280;55732;52.248;-0.844;2022-10-16T04:39:51;99808.97;;;10.46;76.70
62926;BME280;55732;52.248;-0.844;2022-10-16T04:42:17;99818.31;;;10.45;76.74
62926;BME280;55732;52.248;-0.844;2022-10-16T04:44:42;99819.37;;;10.45;76.71
62926;BME280;55732;52.248;-0.844;2022-10-16T04:47:08;99825.54;;;10.44;76.82
62926;BME280;55732;52.248;-0.844;2022-10-16T04:49:33;99833.64;;;10.44;76.76
62926;BME280;55732;52.248;-0.844;2022-10-16T04:51:58;99835.40;;;10.43;76.73
62926;BME280;55732;52.248;-0.844;2022-10-16T04:54:24;99838.77;;;10.42;76.87
62926;BME280;55732;52.248;-0.844;2022-10-16T04:56:49;99843.17;;;10.41;76.80
62926;BME280;55732;52.248;-0.844;2022-10-16T04:59:18;99845.48;;;10.39;76.91
62926;BME280;55732;52.248;-0.844;2022-10-16T05:01:44;99850.80;;;10.37;77.01
62926;BME280;55732;52.248;-0.844;2022-10-16T05:04:10;99857.85;;;10.36;77.10
62926;BME280;55732;52.248;-0.844;2022-10-16T05:06:36;99861.73;;;10.35;76.92
62926;BME280;55732;52.248;-0.844;2022-10-16T05:09:04;99871.61;;;10.32;77.08
62926;BME280;55732;52.248;-0.844;2022-10-16T05:11:30;99875.67;;;10.30;77.10
62926;BME280;55732;52.248;-0.844;2022-10-16T05:13:55;99878.33;;;10.29;77.11
62926;BME280;55732;52.248;-0.844;2022-10-16T05:16:21;99880.30;;;10.27;77.06
62926;BME280;55732;52.248;-0.844;2022-10-16T05:18:46;99882.63;;;10.24;77.17
62926;BME280;55732;52.248;-0.844;2022-10-16T05:21:12;99886.34;;;10.21;77.22
62926;BME280;55732;52.248;-0.844;2022-10-16T05:23:37;99893.92;;;10.18;77.33
62926;BME280;55732;52.248;-0.844;2022-10-16T05:26:03;99899.75;;;10.15;77.36
62926;BME280;55732;52.248;-0.844;2022-10-16T05:28:29;99909.80;;;10.13;77.48
62926;BME280;55732;52.248;-0.844;2022-10-16T05:30:56;99911.21;;;10.13;77.63
62926;BME280;55732;52.248;-0.844;2022-10-16T05:33:23;99915.09;;;10.12;77.72
62926;BME280;55732;52.248;-0.844;2022-10-16T05:35:49;99917.90;;;10.12;77.72
62926;BME280;55732;52.248;-0.844;2022-10-16T05:38:18;99922.84;;;10.11;77.77
62926;BME280;55732;52.248;-0.844;2022-10-16T05:40:49;99931.28;;;10.10;77.78
62926;BME280;55732;52.248;-0.844;2022-10-16T05:43:15;99934.63;;;10.10;77.91
62926;BME280;55732;52.248;-0.844;2022-10-16T05:45:40;99941.67;;;10.08;77.90
62926;BME280;55732;52.248;-0.844;2022-10-16T05:48:06;99950.30;;;10.07;77.77
62926;BME280;55732;52.248;-0.844;2022-10-16T05:50:33;99950.16;;;10.04;77.83
62926;BME280;55732;52.248;-0.844;2022-10-16T05:52:58;99950.91;;;10.01;77.89
62926;BME280;55732;52.248;-0.844;2022-10-16T05:55:24;99956.90;;;9.99;78.16
62926;BME280;55732;52.248;-0.844;2022-10-16T05:57:49;99960.77;;;9.98;77.96
62926;BME280;55732;52.248;-0.844;2022-10-16T06:00:15;99964.99;;;9.97;78.07
62926;BME280;55732;52.248;-0.844;2022-10-16T06:02:40;99961.67;;;9.94;78.13
62926;BME280;55732;52.248;-0.844;2022-10-16T06:05:06;99961.89;;;9.91;78.22
62926;BME280;55732;52.248;-0.844;2022-10-16T06:07:35;99967.19;;;9.89;78.24
62926;BME280;55732;52.248;-0.844;2022-10-16T06:10:01;99970.89;;;9.87;78.37
62926;BME280;55732;52.248;-0.844;2022-10-16T06:12:26;99974.42;;;9.85;78.39
62926;BME280;55732;52.248;-0.844;2022-10-16T06:14:52;99983.05;;;9.83;78.56
62926;BME280;55732;52.248;-0.844;2022-10-16T06:17:17;99991.48;;;9.83;78.56
62926;BME280;55732;52.248;-0.844;2022-10-16T06:19:43;99996.23;;;9.81;78.56
62926;BME280;55732;52.248;-0.844;2022-10-16T06:22:08;100002.23;;;9.79;78.63
62926;BME280;55732;52.248;-0.844;2022-10-16T06:24:34;100006.13;;;9.79;78.76
62926;BME280;55732;52.248;-0.844;2022-10-16T06:26:59;100011.58;;;9.78;78.88
62926;BME280;55732;52.248;-0.844;2022-10-16T06:29:24;100011.77;;;9.78;79.05
62926;BME280;55732;52.248;-0.844;2022-10-16T06:31:50;100018.61;;;9.78;78.87
62926;BME280;55732;52.248;-0.844;2022-10-16T06:34:15;100026.70;;;9.78;79.07
62926;BME280;55732;52.248;-0.844;2022-10-16T06:36:41;100031.98;;;9.77;79.20
62926;BME280;55732;52.248;-0.844;2022-10-16T06:39:06;100035.15;;;9.75;79.25
62926;BME280;55732;52.248;-0.844;2022-10-16T06:41:32;100038.66;;;9.75;79.23
62926;BME280;55732;52.248;-0.844;2022-10-16T06:43:58;100042.36;;;9.75;79.44
62926;BME280;55732;52.248;-0.844;2022-10-16T06:46:25;100054.83;;;9.79;79.57
62926;BME280;55732;52.248;-0.844;2022-10-16T06:48:52;100061.30;;;9.81;79.39
62926;BME280;55732;52.248;-0.844;2022-10-16T06:51:19;100066.20;;;9.86;79.57
62926;BME280;55732;52.248;-0.844;2022-10-16T06:53:48;100069.32;;;9.92;79.47
62926;BME280;55732;52.248;-0.844;2022-10-16T06:56:19;100072.09;;;9.98;79.39
62926;BME280;55732;52.248;-0.844;2022-10-16T06:58:46;100070.98;;;10.04;79.27
62926;BME280;55732;52.248;-0.844;2022-10-16T07:01:12;100070.24;;;10.11;79.16
62926;BME280;55732;52.248;-0.844;2022-10-16T07:03:40;100073.36;;;10.19;79.08
62926;BME280;55732;52.248;-0.844;2022-10-16T07:06:07;100080.87;;;10.27;78.92
62926;BME280;55732;52.248;-0.844;2022-10-16T07:08:38;100078.70;;;10.36;78.71
62926;BME280;55732;52.248;-0.844;2022-10-16T07:11:09;100081.98;;;10.43;78.70
62926;BME280;55732;52.248;-0.844;2022-10-16T07:13:36;100088.42;;;10.50;78.60
62926;BME280;55732;52.248;-0.844;2022-10-16T07:16:13;100092.77;;;10.58;78.42
62926;BME280;55732;52.248;-0.844;2022-10-16T07:18:39;100096.91;;;10.66;78.27
62926;BME280;55732;52.248;-0.844;2022-10-16T07:21:11;100098.95;;;10.73;78.21
62926;BME280;55732;52.248;-0.844;2022-10-16T07:23:37;100105.58;;;10.80;77.89
62926;BME280;55732;52.248;-0.844;2022-10-16T07:26:03;100106.04;;;10.86;77.73
62926;BME280;55732;52.248;-0.844;2022-10-16T07:28:30;100106.38;;;10.89;77.52
62926;BME280;55732;52.248;-0.844;2022-10-16T07:31:05;100121.02;;;11.02;77.31
62926;BME280;55732;52.248;-0.844;2022-10-16T07:33:33;100125.15;;;11.10;77.16
62926;BME280;55732;52.248;-0.844;2022-10-16T07:35:59;100125.95;;;11.18;76.97
62926;BME280;55732;52.248;-0.844;2022-10-16T07:38:24;100123.91;;;11.28;76.86
62926;BME280;55732;52.248;-0.844;2022-10-16T07:41:00;100126.44;;;11.37;76.61
62926;BME280;55732;52.248;-0.844;2022-10-16T07:43:27;100129.21;;;11.42;76.30
62926;BME280;55732;52.248;-0.844;2022-10-16T07:45:53;100139.67;;;11.51;76.27
62926;BME280;55732;52.248;-0.844;2022-10-16T07:48:19;100148.91;;;11.59;75.86
62926;BME280;55732;52.248;-0.844;2022-10-16T07:50:45;100152.20;;;11.65;75.83
62926;BME280;55732;52.248;-0.844;2022-10-16T07:53:11;100159.35;;;11.72;75.77
62926;BME280;55732;52.248;-0.844;2022-10-16T07:55:37;100168.98;;;11.79;75.49
62926;BME280;55732;52.248;-0.844;2022-10-16T07:58:03;100173.98;;;11.87;75.41
62926;BME280;55732;52.248;-0.844;2022-10-16T08:00:28;100175.65;;;11.95;75.26
62926;BME280;55732;52.248;-0.844;2022-10-16T08:02:53;100181.50;;;12.05;75.13
62926;BME280;55732;52.248;-0.844;2022-10-16T08:05:19;100188.46;;;12.14;74.86
62926;BME280;55732;52.248;-0.844;2022-10-16T08:07:49;100192.77;;;12.21;74.58
62926;BME280;55732;52.248;-0.844;2022-10-16T08:10:17;100198.49;;;12.27;74.46
62926;BME280;55732;52.248;-0.844;2022-10-16T08:12:42;100200.72;;;12.33;74.09
62926;BME280;55732;52.248;-0.844;2022-10-16T08:15:08;100201.99;;;12.42;74.16
62926;BME280;55732;52.248;-0.844;2022-10-16T08:17:34;100200.52;;;12.46;73.80
62926;BME280;55732;52.248;-0.844;2022-10-16T08:19:59;100205.38;;;12.51;73.81
62926;BME280;55732;52.248;-0.844;2022-10-16T08:22:25;100208.45;;;12.59;73.74
62926;BME280;55732;52.248;-0.844;2022-10-16T08:24:50;100209.52;;;12.69;73.60
62926;BME280;55732;52.248;-0.844;2022-10-16T08:27:15;100208.64;;;12.80;73.37
62926;BME280;55732;52.248;-0.844;2022-10-16T08:29:41;100213.62;;;12.88;72.89
62926;BME280;55732;52.248;-0.844;2022-10-16T08:32:06;100225.33;;;12.97;72.64
62926;BME280;55732;52.248;-0.844;2022-10-16T08:34:31;100228.30;;;13.09;72.63
62926;BME280;55732;52.248;-0.844;2022-10-16T08:36:57;100227.80;;;13.20;72.34
62926;BME280;55732;52.248;-0.844;2022-10-16T08:39:22;100231.85;;;13.30;72.11
62926;BME280;55732;52.248;-0.844;2022-10-16T08:50:30;100251.60;;;13.61;70.64
62926;BME280;55732;52.248;-0.844;2022-10-16T08:52:56;100254.05;;;13.63;70.33
62926;BME280;55732;52.248;-0.844;2022-10-16T08:55:38;100252.20;;;13.67;70.24
62926;BME280;55732;52.248;-0.844;2022-10-16T08:58:15;100255.95;;;13.74;70.04
62926;BME280;55732;52.248;-0.844;2022-10-16T09:00:43;100259.17;;;13.82;69.87
62926;BME280;55732;52.248;-0.844;2022-10-16T09:11:17;100271.20;;;14.09;68.83
62926;BME280;55732;52.248;-0.844;2022-10-16T09:13:52;100274.91;;;14.17;68.63
62926;BME280;55732;52.248;-0.844;2022-10-16T09:16:34;100276.59;;;14.21;68.16
62926;BME280;55732;52.248;-0.844;2022-10-16T09:19:05;100278.03;;;14.29;67.68
62926;BME280;55732;52.248;-0.844;2022-10-16T09:21:40;100279.77;;;14.40;67.35
62926;BME280;55732;52.248;-0.844;2022-10-16T09:24:14;100278.76;;;14.54;66.65
62926;BME280;55732;52.248;-0.844;2022-10-16T09:26:40;100276.88;;;14.66;66.08
62926;BME280;55732;52.248;-0.844;2022-10-16T09:29:08;100278.17;;;14.72;65.55
62926;BME280;55732;52.248;-0.844;2022-10-16T09:31:36;100282.47;;;14.77;64.86
62926;BME280;55732;52.248;-0.844;2022-10-16T09:34:03;100288.77;;;14.81;64.59
62926;BME280;55732;52.248;-0.844;2022-10-16T09:36:37;100288.59;;;14.88;64.35
62926;BME280;55732;52.248;-0.844;2022-10-16T09:39:07;100295.62;;;14.98;64.11
62926;BME280;55732;52.248;-0.844;2022-10-16T09:41:36;100298.26;;;15.07;63.36
62926;BME280;55732;52.248;-0.844;2022-10-16T09:44:04;100302.70;;;15.13;62.97
62926;BME280;55732;52.248;-0.844;2022-10-16T09:46:30;100305.13;;;15.16;62.47
62926;BME280;55732;52.248;-0.844;2022-10-16T09:49:05;100299.93;;;15.18;62.12
62926;BME280;55732;52.248;-0.844;2022-10-16T09:51:37;100297.55;;;15.28;61.23
62926;BME280;55732;52.248;-0.844;2022-10-16T09:56:36;100297.30;;;15.59;60.26
62926;BME280;55732;52.248;-0.844;2022-10-16T09:59:13;100291.48;;;15.72;59.84
62926;BME280;55732;52.248;-0.844;2022-10-16T10:01:44;100292.17;;;15.85;59.35
62926;BME280;55732;52.248;-0.844;2022-10-16T10:04:11;100293.65;;;16.03;58.76
62926;BME280;55732;52.248;-0.844;2022-10-16T10:06:43;100291.06;;;16.18;57.80
62926;BME280;55732;52.248;-0.844;2022-10-16T10:12:00;100296.12;;;16.45;56.45
62926;BME280;55732;52.248;-0.844;2022-10-16T10:14:43;100301.95;;;16.65;55.25
62926;BME280;55732;52.248;-0.844;2022-10-16T10:17:13;100307.51;;;16.81;54.77
62926;BME280;55732;52.248;-0.844;2022-10-16T10:19:55;100309.31;;;16.97;54.35
62926;BME280;55732;52.248;-0.844;2022-10-16T10:27:28;100321.02;;;17.31;53.29
62926;BME280;55732;52.248;-0.844;2022-10-16T10:35:25;100322.88;;;17.60;52.85
62926;BME280;55732;52.248;-0.844;2022-10-16T10:45:47;100315.86;;;17.73;52.39
62926;BME280;55732;52.248;-0.844;2022-10-16T10:51:19;100321.84;;;17.60;51.13
62926;BME280;55732;52.248;-0.844;2022-10-16T10:54:11;100325.12;;;17.47;51.43
62926;BME280;55732;52.248;-0.844;2022-10-16T10:56:45;100329.10;;;17.34;51.84
62926;BME280;55732;52.248;-0.844;2022-10-16T10:59:26;100326.20;;;17.25;51.92
62926;BME280;55732;52.248;-0.844;2022-10-16T11:02:15;100328.06;;;17.17;51.68
62926;BME280;55732;52.248;-0.844;2022-10-16T11:08:16;100335.69;;;17.01;51.01
62926;BME280;55732;52.248;-0.844;2022-10-16T11:10:53;100333.52;;;16.97;50.96
62926;BME280;55732;52.248;-0.844;2022-10-16T11:13:33;100329.08;;;16.96;51.18
62926;BME280;55732;52.248;-0.844;2022-10-16T11:16:11;100327.13;;;17.02;51.10
62926;BME280;55732;52.248;-0.844;2022-10-16T11:18:55;100322.94;;;17.05;50.60
62926;BME280;55732;52.248;-0.844;2022-10-16T11:21:22;100321.88;;;17.05;49.92
62926;BME280;55732;52.248;-0.844;2022-10-16T11:26:26;100317.85;;;17.09;49.49
62926;BME280;55732;52.248;-0.844;2022-10-16T11:28:54;100313.02;;;17.09;49.36
62926;BME280;55732;52.248;-0.844;2022-10-16T11:31:36;100313.67;;;17.11;49.34
62926;BME280;55732;52.248;-0.844;2022-10-16T11:34:28;100313.92;;;17.09;49.25
62926;BME280;55732;52.248;-0.844;2022-10-16T11:37:17;100308.87;;;17.06;49.09
62926;BME280;55732;52.248;-0.844;2022-10-16T11:39:45;100311.38;;;17.05;48.63
62926;BME280;55732;52.248;-0.844;2022-10-16T11:47:35;100310.31;;;17.21;48.30
62926;BME280;55732;52.248;-0.844;2022-10-16T11:55:43;100309.18;;;17.39;48.04
62926;BME280;55732;52.248;-0.844;2022-10-16T11:58:27;100312.31;;;17.42;47.29
62926;BME280;55732;52.248;-0.844;2022-10-16T12:03:44;100311.83;;;17.45;46.98
62926;BME280;55732;52.248;-0.844;2022-10-16T12:09:04;100305.77;;;17.56;47.36
62926;BME280;55732;52.248;-0.844;2022-10-16T12:11:36;100302.24;;;17.60;47.40
62926;BME280;55732;52.248;-0.844;2022-10-16T12:14:20;100301.06;;;17.63;47.74
62926;BME280;55732;52.248;-0.844;2022-10-16T12:16:57;100300.61;;;17.72;47.74
62926;BME280;55732;52.248;-0.844;2022-10-16T12:19:29;100300.44;;;17.82;47.96
62926;BME280;55732;52.248;-0.844;2022-10-16T12:22:00;100303.63;;;17.87;47.64
62926;BME280;55732;52.248;-0.844;2022-10-16T12:24:41;100302.88;;;17.88;47.61
62926;BME280;55732;52.248;-0.844;2022-10-16T12:27:40;100302.14;;;17.84;47.81
62926;BME280;55732;52.248;-0.844;2022-10-16T12:30:06;100311.67;;;17.60;48.14
62926;BME280;55732;52.248;-0.844;2022-10-16T12:32:35;100307.94;;;17.55;48.24
62926;BME280;55732;52.248;-0.844;2022-10-16T12:35:03;100307.02;;;17.61;48.38
62926;BME280;55732;52.248;-0.844;2022-10-16T12:37:34;100307.54;;;17.67;48.67
62926;BME280;55732;52.248;-0.844;2022-10-16T12:40:13;100306.55;;;17.75;48.60
62926;BME280;55732;52.248;-0.844;2022-10-16T12:42:40;100312.02;;;17.82;48.71
62926;BME280;55732;52.248;-0.844;2022-10-16T12:45:30;100307.13;;;17.89;48.75
62926;BME280;55732;52.248;-0.844;2022-10-16T12:47:57;100306.86;;;17.86;48.77
62926;BME280;55732;52.248;-0.844;2022-10-16T12:50:35;100310.09;;;17.90;48.70
62926;BME280;55732;52.248;-0.844;2022-10-16T12:53:03;100308.70;;;17.95;48.67
62926;BME280;55732;52.248;-0.844;2022-10-16T12:55:35;100312.29;;;18.04;48.68
62926;BME280;55732;52.248;-0.844;2022-10-16T13:01:08;100316.94;;;17.88;49.02
62926;BME280;55732;52.248;-0.844;2022-10-16T13:11:46;100305.98;;;18.00;49.54
62926;BME280;55732;52.248;-0.844;2022-10-16T13:17:39;100311.73;;;17.80;50.56
62926;BME280;55732;52.248;-0.844;2022-10-16T13:20:51;100311.67;;;17.76;50.85
62926;BME280;55732;52.248;-0.844;2022-10-16T13:28:32;100306.15;;;18.16;51.08
62926;BME280;55732;52.248;-0.844;2022-10-16T13:30:59;100309.45;;;18.27;50.80
62926;BME280;55732;52.248;-0.844;2022-10-16T13:33:47;100303.65;;;18.16;50.25
62926;BME280;55732;52.248;-0.844;2022-10-16T13:36:28;100300.22;;;17.92;50.52
62926;BME280;55732;52.248;-0.844;2022-10-16T13:39:13;100294.69;;;17.73;50.99
62926;BME280;55732;52.248;-0.844;2022-10-16T13:41:38;100294.05;;;17.66;51.09
62926;BME280;55732;52.248;-0.844;2022-10-16T13:44:15;100299.65;;;17.63;51.52
62926;BME280;55732;52.248;-0.844;2022-10-16T13:46:43;100297.88;;;17.62;51.51
62926;BME280;55732;52.248;-0.844;2022-10-16T13:49:16;100287.36;;;17.63;51.48
62926;BME280;55732;52.248;-0.844;2022-10-16T13:51:53;100284.48;;;17.65;51.33
62926;BME280;55732;52.248;-0.844;2022-10-16T13:54:19;100277.92;;;17.69;51.33
62926;BME280;55732;52.248;-0.844;2022-10-16T13:56:44;100279.05;;;17.77;51.21
62926;BME280;55732;52.248;-0.844;2022-10-16T13:59:23;100274.05;;;17.82;50.98
62926;BME280;55732;52.248;-0.844;2022-10-16T14:01:52;100284.29;;;17.85;50.61
62926;BME280;55732;52.248;-0.844;2022-10-16T14:04:19;100288.05;;;17.79;50.50
62926;BME280;55732;52.248;-0.844;2022-10-16T14:06:46;100284.52;;;17.73;50.58
62926;BME280;55732;52.248;-0.844;2022-10-16T14:09:29;100281.34;;;17.68;50.53
62926;BME280;55732;52.248;-0.844;2022-10-16T14:12:02;100286.16;;;17.68;50.43
62926;BME280;55732;52.248;-0.844;2022-10-16T14:14:34;100283.23;;;17.65;50.04
62926;BME280;55732;52.248;-0.844;2022-10-16T14:17:02;100283.55;;;17.60;50.14
62926;BME280;55732;52.248;-0.844;2022-10-16T14:19:29;100286.65;;;17.53;50.32
62926;BME280;55732;52.248;-0.844;2022-10-16T14:21:56;100292.61;;;17.45;50.73
62926;BME280;55732;52.248;-0.844;2022-10-16T14:24:39;100291.63;;;17.37;51.04
62926;BME280;55732;52.248;-0.844;2022-10-16T14:27:29;100294.81;;;17.33;51.23
62926;BME280;55732;52.248;-0.844;2022-10-16T14:30:17;100294.57;;;17.29;51.06
62926;BME280;55732;52.248;-0.844;2022-10-16T14:35:33;100289.39;;;17.30;50.99
62926;BME280;55732;52.248;-0.844;2022-10-16T14:38:01;100290.55;;;17.27;51.25